ENRA/MQN METAR and TAF weather

Enter ICAO airport designator
Station Type Date Time Source
ENRA METAR 2019/02/23 15:20 UTC NOAA

ENRA 231520Z 35001KT 4000 1000S -RADZ VCFG FEW002 SCT007 BKN012 04/04 Q1021


Station Type Date Time Source
ENRA Decoded METAR 2019/02/23 15:20 UTC NOAA

Mo I Rana / Rossvoll, Norway (ENRA) 66-22N 014-18E 70M
Feb 23, 2019 - 10:20 AM EST / 2019.02.23 1520 UTC
Wind: from the N (350 degrees) at 1 MPH (1 KT):0
Visibility: 2 mile(s):0
Sky conditions: mostly cloudy
Weather: light rain, drizzle; fog in the vicinity
Temperature: 39 F (4 C)
Dew Point: 39 F (4 C)
Relative Humidity: 100%
Pressure (altimeter): 30.15 in. Hg (1021 hPa)
ob: ENRA 231520Z 35001KT 4000 1000S -RADZ VCFG FEW002 SCT007 BKN012 04/04 Q1021
cycle: 15

Station Type Date Time Source
ENRA TAF UTC NOAA

Error!


Example: see airport list